createdAt,value
2023-01-21T00:02:09.232Z,9.13
2023-01-21T00:04:38.157Z,9.60
2023-01-21T00:07:06.821Z,9.33
2023-01-21T00:09:36.683Z,9.57
2023-01-21T00:12:05.556Z,8.57
2023-01-21T00:14:34.001Z,8.87
2023-01-21T00:17:02.397Z,9.67
2023-01-21T00:19:30.791Z,9.30
2023-01-21T00:21:59.238Z,9.57
2023-01-21T00:24:27.740Z,9.23
2023-01-21T00:26:57.544Z,9.67
2023-01-21T00:29:26.516Z,9.80
2023-01-21T00:31:54.932Z,8.93
2023-01-21T00:34:23.287Z,9.53
2023-01-21T00:36:51.659Z,9.83
2023-01-21T00:39:20.126Z,10.13
2023-01-21T00:41:48.522Z,9.57
2023-01-21T00:44:19.303Z,9.67
2023-01-21T00:46:47.644Z,9.27
2023-01-21T00:49:16.057Z,9.07
2023-01-21T00:51:44.455Z,9.43
2023-01-21T00:54:12.865Z,10.37
2023-01-21T00:56:41.192Z,9.80
2023-01-21T00:59:09.897Z,9.63
2023-01-21T01:01:39.740Z,9.70
2023-01-21T01:04:08.252Z,9.83
2023-01-21T01:06:36.607Z,11.10
2023-01-21T01:09:05.459Z,10.20
2023-01-21T01:11:34.243Z,9.57
2023-01-21T01:14:02.544Z,9.63
2023-01-21T01:16:30.907Z,9.50
2023-01-21T01:19:01.210Z,10.37
2023-01-21T01:21:30.277Z,8.43
2023-01-21T01:24:00.742Z,9.03
2023-01-21T01:26:29.118Z,9.63
2023-01-21T01:28:57.660Z,9.03
2023-01-21T01:31:25.973Z,9.50
2023-01-21T01:33:54.310Z,11.30
2023-01-21T01:36:24.900Z,9.33
2023-01-21T01:38:54.312Z,9.33
2023-01-21T01:41:25.475Z,9.40
2023-01-21T01:43:58.828Z,8.87
2023-01-21T01:46:30.150Z,8.50
2023-01-21T01:49:10.355Z,9.93
2023-01-21T01:51:47.175Z,10.63
2023-01-21T01:54:20.464Z,9.40
2023-01-21T01:56:53.415Z,10.07
2023-01-21T01:59:22.265Z,9.40
2023-01-21T02:01:50.846Z,10.37
2023-01-21T02:04:24.763Z,10.90
2023-01-21T02:06:56.117Z,9.87
2023-01-21T02:09:29.703Z,10.33
2023-01-21T02:11:59.313Z,9.87
2023-01-21T02:14:27.951Z,9.73
2023-01-21T02:17:18.041Z,9.97
2023-01-21T02:20:38.004Z,9.33
2023-01-21T02:23:18.405Z,9.97
2023-01-21T02:26:38.807Z,8.97
2023-01-21T02:29:45.030Z,11.63
2023-01-21T02:32:39.669Z,10.17
2023-01-21T02:35:15.375Z,10.03
2023-01-21T02:37:51.082Z,11.13
2023-01-21T02:40:27.190Z,10.47
2023-01-21T02:43:06.616Z,10.23
2023-01-21T02:45:40.285Z,9.13
2023-01-21T02:48:15.980Z,10.07
2023-01-21T02:50:50.670Z,9.70
2023-01-21T02:53:25.940Z,9.93
2023-01-21T02:55:54.735Z,10.30
2023-01-21T02:58:29.000Z,10.50
2023-01-21T03:01:10.816Z,10.23
2023-01-21T03:04:02.815Z,9.70
2023-01-21T03:06:43.599Z,10.40
2023-01-21T03:09:23.062Z,9.70
2023-01-21T03:12:10.146Z,10.30
2023-01-21T03:15:02.109Z,10.60
2023-01-21T03:17:41.648Z,10.17
2023-01-21T03:20:14.623Z,9.33
2023-01-21T03:22:45.682Z,9.57
2023-01-21T03:25:16.050Z,9.37
2023-01-21T03:27:47.664Z,9.33
2023-01-21T03:30:19.717Z,10.07
2023-01-21T03:32:52.285Z,8.80
2023-01-21T03:35:25.761Z,9.80
2023-01-21T03:37:59.716Z,9.77
2023-01-21T03:40:31.997Z,9.70
2023-01-21T03:43:00.506Z,10.10
2023-01-21T03:45:36.844Z,9.27
2023-01-21T03:48:17.825Z,10.40
2023-01-21T03:50:51.122Z,8.97
2023-01-21T03:53:21.495Z,10.23
2023-01-21T03:55:51.767Z,10.37
2023-01-21T03:58:20.052Z,10.17
2023-01-21T04:00:49.268Z,9.47
2023-01-21T04:03:17.590Z,9.70
2023-01-21T04:05:45.897Z,10.47
2023-01-21T04:08:14.157Z,10.83
2023-01-21T04:10:44.164Z,10.53
2023-01-21T04:13:12.414Z,9.63
2023-01-21T04:15:40.765Z,9.27
2023-01-21T04:18:09.066Z,10.53
2023-01-21T04:20:37.359Z,9.63
2023-01-21T04:23:05.642Z,9.73
2023-01-21T04:25:33.897Z,10.00
2023-01-21T04:28:03.577Z,11.20
2023-01-21T04:30:31.960Z,10.43
2023-01-21T04:33:00.334Z,9.67
2023-01-21T04:35:28.666Z,10.33
2023-01-21T04:37:57.539Z,10.33
2023-01-21T04:40:25.754Z,9.57
2023-01-21T04:42:54.037Z,9.50
2023-01-21T04:45:24.170Z,10.60
2023-01-21T04:47:52.466Z,9.93
2023-01-21T04:50:20.971Z,9.93
2023-01-21T04:52:49.291Z,10.10
2023-01-21T04:55:17.811Z,9.30
2023-01-21T04:57:46.166Z,11.20
2023-01-21T05:00:16.197Z,9.57
2023-01-21T05:02:46.058Z,10.87
2023-01-21T05:05:14.380Z,9.60
2023-01-21T05:07:42.727Z,10.73
2023-01-21T05:10:16.947Z,10.43
2023-01-21T05:12:45.414Z,10.63
2023-01-21T05:15:13.847Z,10.00
2023-01-21T05:17:42.155Z,10.27
2023-01-21T05:20:13.467Z,10.33
2023-01-21T05:22:41.835Z,9.87
2023-01-21T05:25:10.807Z,9.73
2023-01-21T05:27:39.080Z,10.63
2023-01-21T05:30:09.169Z,8.67
2023-01-21T05:32:37.706Z,9.93
2023-01-21T05:35:06.455Z,10.37
2023-01-21T05:37:36.211Z,9.57
2023-01-21T05:40:05.517Z,11.03
2023-01-21T05:42:33.808Z,9.33
2023-01-21T05:45:02.421Z,10.00
2023-01-21T05:47:30.618Z,10.13
2023-01-21T05:49:58.863Z,10.90
2023-01-21T05:52:27.077Z,10.90
2023-01-21T05:55:02.355Z,9.80
2023-01-21T05:57:31.342Z,10.93
2023-01-21T05:59:59.938Z,10.70
2023-01-21T06:02:28.436Z,10.63
2023-01-21T06:04:56.700Z,11.73
2023-01-21T06:07:24.955Z,10.47
2023-01-21T06:09:53.190Z,10.37
2023-01-21T06:12:24.745Z,10.90
2023-01-21T06:14:53.147Z,11.27
2023-01-21T06:17:21.579Z,11.23
2023-01-21T06:19:49.802Z,10.57
2023-01-21T06:22:18.956Z,9.70
2023-01-21T06:24:47.274Z,10.87
2023-01-21T06:27:15.549Z,10.50
2023-01-21T06:29:45.217Z,10.47
2023-01-21T06:32:13.463Z,10.53
2023-01-21T06:34:41.707Z,10.23
2023-01-21T06:37:09.951Z,10.83
2023-01-21T06:39:38.842Z,9.83
2023-01-21T06:42:07.150Z,10.57
2023-01-21T06:44:35.396Z,10.83
2023-01-21T06:47:05.230Z,10.43
2023-01-21T06:49:33.523Z,10.13
2023-01-21T06:52:01.925Z,10.53
2023-01-21T06:54:30.583Z,10.30
2023-01-21T06:57:00.056Z,10.50
2023-01-21T06:59:28.374Z,10.30
2023-01-21T07:01:58.977Z,10.30
2023-01-21T07:04:29.130Z,10.10
2023-01-21T07:06:57.502Z,11.43
2023-01-21T07:09:26.302Z,11.77
2023-01-21T07:11:55.555Z,12.93
2023-01-21T07:14:23.855Z,13.60
2023-01-21T07:16:52.103Z,11.87
2023-01-21T07:19:20.361Z,11.63
2023-01-21T07:21:50.364Z,12.03
2023-01-21T07:24:18.625Z,11.43
2023-01-21T07:26:46.908Z,10.83
2023-01-21T07:29:15.395Z,11.27
2023-01-21T07:31:43.727Z,11.10
2023-01-21T07:34:12.045Z,10.60
2023-01-21T07:36:40.281Z,10.83
2023-01-21T07:39:09.964Z,11.90
2023-01-21T07:41:38.210Z,11.13
2023-01-21T07:44:06.950Z,11.60
2023-01-21T07:46:36.126Z,11.13
2023-01-21T07:49:04.614Z,11.07
2023-01-21T07:51:32.896Z,10.13
2023-01-21T07:54:01.192Z,10.23
2023-01-21T07:56:30.797Z,12.03
2023-01-21T07:58:59.094Z,11.93
2023-01-21T08:01:30.995Z,11.57
2023-01-21T08:03:59.550Z,9.83
2023-01-21T08:06:28.186Z,12.50
2023-01-21T08:08:56.427Z,11.43
2023-01-21T08:11:24.699Z,11.37
2023-01-21T08:13:54.320Z,11.63
2023-01-21T08:16:22.649Z,10.60
2023-01-21T08:18:51.165Z,10.33
2023-01-21T08:21:20.893Z,10.07
2023-01-21T08:23:49.280Z,10.47
2023-01-21T08:26:17.545Z,11.03
2023-01-21T08:28:45.756Z,10.43
2023-01-21T08:31:15.815Z,9.67
2023-01-21T08:33:44.082Z,10.77
2023-01-21T08:36:12.331Z,11.27
2023-01-21T08:38:41.134Z,12.03
2023-01-21T08:41:10.604Z,10.80
2023-01-21T08:43:40.584Z,10.07
2023-01-21T08:46:08.844Z,11.80
2023-01-21T08:48:39.119Z,11.27
2023-01-21T08:51:07.858Z,10.77
2023-01-21T08:53:36.118Z,10.23
2023-01-21T08:56:06.023Z,10.47
2023-01-21T08:58:34.548Z,10.00
2023-01-21T09:01:08.899Z,10.57
2023-01-21T09:03:38.804Z,10.43
2023-01-21T09:06:08.461Z,10.70
2023-01-21T09:08:37.366Z,10.57
2023-01-21T09:11:07.067Z,10.20
2023-01-21T09:13:38.648Z,10.47
2023-01-21T09:16:10.425Z,11.27
2023-01-21T09:18:40.239Z,9.57
2023-01-21T09:21:10.495Z,9.43
2023-01-21T09:23:40.156Z,11.00
2023-01-21T09:26:14.274Z,10.10
2023-01-21T09:28:43.799Z,10.87
2023-01-21T09:31:15.441Z,10.07
2023-01-21T09:33:47.889Z,9.83
2023-01-21T09:36:19.110Z,9.40
2023-01-21T09:38:49.084Z,9.43
2023-01-21T09:41:26.936Z,10.47
2023-01-21T09:44:06.542Z,9.00
2023-01-21T09:46:42.985Z,10.43
2023-01-21T09:49:19.895Z,10.70
2023-01-21T09:51:54.459Z,9.63
2023-01-21T09:54:30.310Z,10.77
2023-01-21T09:57:33.267Z,9.53
2023-01-21T10:00:27.222Z,9.23
2023-01-21T10:03:04.514Z,9.10
2023-01-21T10:06:06.027Z,9.37
2023-01-21T10:08:56.985Z,9.93
2023-01-21T10:11:47.775Z,9.30
2023-01-21T10:15:13.007Z,9.87
2023-01-21T10:17:53.492Z,9.77
2023-01-21T10:20:26.030Z,9.77
2023-01-21T10:23:01.907Z,9.40
2023-01-21T10:25:34.087Z,10.73
2023-01-21T10:28:10.480Z,10.13
2023-01-21T10:30:44.746Z,10.43
2023-01-21T10:33:19.714Z,10.53
2023-01-21T10:36:37.640Z,10.20
2023-01-21T10:39:18.795Z,9.17
2023-01-21T10:42:06.272Z,9.97
2023-01-21T10:44:46.255Z,9.07
2023-01-21T10:47:24.180Z,8.27
2023-01-21T10:50:01.535Z,8.83
2023-01-21T10:52:38.595Z,9.10
2023-01-21T10:55:27.445Z,8.83
2023-01-21T10:58:01.470Z,10.10
2023-01-21T11:00:34.200Z,9.77
2023-01-21T11:03:09.690Z,9.17
2023-01-21T11:05:40.412Z,9.33
2023-01-21T11:08:10.105Z,8.60
2023-01-21T11:10:41.303Z,8.83
2023-01-21T11:13:13.245Z,7.50
2023-01-21T11:15:49.083Z,7.27
2023-01-21T11:18:31.116Z,7.80
2023-01-21T11:21:01.455Z,8.80
2023-01-21T11:23:32.314Z,11.57
2023-01-21T11:26:09.415Z,11.77
2023-01-21T11:28:38.659Z,12.13
2023-01-21T11:31:13.120Z,20.47
2023-01-21T11:33:43.274Z,26.40
2023-01-21T11:36:15.485Z,12.97
2023-01-21T11:38:45.053Z,13.37
2023-01-21T11:41:22.577Z,7.80
2023-01-21T11:43:53.337Z,6.03
2023-01-21T11:46:35.808Z,6.93
2023-01-21T11:49:31.368Z,6.50
2023-01-21T11:52:19.835Z,8.33
2023-01-21T11:54:49.038Z,6.37
2023-01-21T11:57:31.727Z,6.33
2023-01-21T12:00:10.173Z,6.23
2023-01-21T12:02:43.518Z,10.60
2023-01-21T12:05:18.201Z,6.77
2023-01-21T12:07:52.415Z,6.17
2023-01-21T12:10:29.198Z,6.07
2023-01-21T12:13:20.241Z,6.37
2023-01-21T12:16:11.952Z,6.07
2023-01-21T12:19:04.079Z,6.27
2023-01-21T12:21:53.736Z,5.30
2023-01-21T12:24:41.468Z,5.43
2023-01-21T12:27:18.823Z,5.50
2023-01-21T12:30:05.751Z,4.93
2023-01-21T12:32:38.808Z,5.53
2023-01-21T12:35:13.605Z,4.70
2023-01-21T12:37:48.450Z,4.67
2023-01-21T12:40:21.673Z,4.30
2023-01-21T12:42:55.129Z,4.67
2023-01-21T12:45:31.808Z,4.70
2023-01-21T12:48:04.674Z,5.40
2023-01-21T12:50:39.691Z,5.30
2023-01-21T12:53:22.148Z,5.67
2023-01-21T12:56:22.274Z,5.97
2023-01-21T12:58:56.407Z,7.53
2023-01-21T13:01:44.306Z,7.53
2023-01-21T13:04:39.334Z,7.23
2023-01-21T13:07:18.527Z,6.13
2023-01-21T13:09:55.673Z,6.77
2023-01-21T13:12:26.763Z,4.93
2023-01-21T13:15:02.104Z,5.77
2023-01-21T13:17:36.088Z,5.20
2023-01-21T13:20:19.533Z,4.70
2023-01-21T13:23:05.293Z,5.00
2023-01-21T13:25:43.757Z,4.43
2023-01-21T13:28:20.157Z,5.47
2023-01-21T13:30:56.369Z,5.50
2023-01-21T13:33:41.828Z,4.40
2023-01-21T13:36:30.764Z,5.03
2023-01-21T13:39:06.332Z,5.10
2023-01-21T13:41:53.582Z,5.07
2023-01-21T13:45:00.343Z,4.57
2023-01-21T13:47:55.027Z,4.73
2023-01-21T13:50:37.533Z,4.20
2023-01-21T13:53:36.373Z,4.90
2023-01-21T13:56:23.091Z,4.20
2023-01-21T13:58:57.820Z,3.53
2023-01-21T14:01:31.096Z,3.83
2023-01-21T14:04:07.263Z,3.93
2023-01-21T14:06:43.355Z,3.53
2023-01-21T14:09:20.688Z,3.97
2023-01-21T14:11:56.310Z,4.37
2023-01-21T14:15:02.404Z,3.53
2023-01-21T14:18:13.191Z,3.77
2023-01-21T14:21:21.807Z,3.53
2023-01-21T14:24:14.735Z,3.97
2023-01-21T14:27:14.991Z,4.27
2023-01-21T14:29:48.069Z,3.87
2023-01-21T14:32:22.989Z,4.30
2023-01-21T14:35:07.508Z,3.73
2023-01-21T14:37:43.945Z,4.13
2023-01-21T14:40:20.163Z,4.27
2023-01-21T14:42:50.315Z,4.33
2023-01-21T14:45:22.244Z,5.03
2023-01-21T14:47:53.208Z,7.73
2023-01-21T14:50:54.064Z,10.40
2023-01-21T14:53:25.795Z,8.73
2023-01-21T14:56:22.713Z,10.43
2023-01-21T14:58:54.366Z,4.87
2023-01-21T15:01:36.912Z,5.13
2023-01-21T15:04:16.535Z,6.20
2023-01-21T15:06:45.065Z,6.00
2023-01-21T15:09:23.352Z,6.03
2023-01-21T15:12:00.772Z,5.60
2023-01-21T15:14:32.070Z,5.83
2023-01-21T15:17:03.657Z,5.77
2023-01-21T15:19:34.174Z,4.90
2023-01-21T15:22:46.666Z,5.47
2023-01-21T15:25:20.863Z,6.17
2023-01-21T15:28:44.241Z,5.53
2023-01-21T15:31:41.571Z,5.90
2023-01-21T15:34:16.400Z,6.43
2023-01-21T15:36:48.485Z,5.50
2023-01-21T15:39:19.543Z,5.23
2023-01-21T15:42:06.675Z,5.50
2023-01-21T15:44:59.672Z,5.43
2023-01-21T15:47:55.423Z,4.83
2023-01-21T15:50:29.183Z,7.03
2023-01-21T15:53:22.592Z,6.10
2023-01-21T15:56:17.392Z,6.70
2023-01-21T15:58:58.185Z,6.70
2023-01-21T16:01:35.407Z,5.47
2023-01-21T16:04:26.652Z,5.20
2023-01-21T16:07:10.910Z,6.27
2023-01-21T16:09:55.698Z,5.63
2023-01-21T16:12:33.232Z,5.17
2023-01-21T16:15:12.116Z,6.13
2023-01-21T16:17:58.955Z,6.40
2023-01-21T16:20:27.493Z,5.63
2023-01-21T16:22:59.479Z,5.90
2023-01-21T16:25:28.280Z,5.67
2023-01-21T16:27:57.052Z,6.60
2023-01-21T16:30:30.820Z,8.43
2023-01-21T16:33:14.983Z,6.80
2023-01-21T16:35:48.615Z,7.40
2023-01-21T16:38:19.573Z,7.40
2023-01-21T16:40:50.511Z,11.07
2023-01-21T16:43:25.551Z,8.17
2023-01-21T16:45:56.772Z,6.93
2023-01-21T16:48:29.893Z,6.57
2023-01-21T16:50:58.513Z,5.80
2023-01-21T16:53:27.920Z,6.23
2023-01-21T16:55:58.708Z,5.63
2023-01-21T16:58:30.333Z,6.27
2023-01-21T17:01:11.820Z,5.90
2023-01-21T17:03:41.569Z,7.90
2023-01-21T17:06:16.054Z,7.63
2023-01-21T17:08:48.459Z,7.53
2023-01-21T17:11:16.777Z,7.77
2023-01-21T17:13:45.974Z,6.70
2023-01-21T17:16:24.917Z,6.43
2023-01-21T17:18:58.623Z,6.40
2023-01-21T17:21:34.139Z,6.53
2023-01-21T17:24:06.241Z,5.40
2023-01-21T17:26:38.946Z,5.53
2023-01-21T17:29:18.105Z,6.10
2023-01-21T17:31:47.089Z,6.53
2023-01-21T17:34:25.162Z,5.67
2023-01-21T17:36:55.473Z,5.97
2023-01-21T17:40:00.693Z,6.43
2023-01-21T17:42:40.641Z,5.03
2023-01-21T17:45:20.826Z,5.80
2023-01-21T17:48:08.688Z,5.83
2023-01-21T17:50:47.233Z,4.80
2023-01-21T17:53:23.344Z,4.50
2023-01-21T17:56:01.840Z,4.97
2023-01-21T17:58:55.815Z,4.30
2023-01-21T18:01:24.185Z,4.73
2023-01-21T18:03:52.540Z,4.80
2023-01-21T18:06:26.891Z,4.93
2023-01-21T18:08:56.395Z,4.43
2023-01-21T18:11:24.807Z,5.07
2023-01-21T18:13:53.321Z,5.10
2023-01-21T18:16:21.708Z,4.67
2023-01-21T18:18:50.601Z,4.87
2023-01-21T18:21:22.382Z,5.00
2023-01-21T18:23:51.372Z,4.67
2023-01-21T18:26:28.556Z,8.00
2023-01-21T18:28:56.934Z,7.13
2023-01-21T18:31:25.348Z,7.37
2023-01-21T18:33:53.762Z,6.07
2023-01-21T18:36:23.430Z,4.93
2023-01-21T18:38:51.742Z,4.83
2023-01-21T18:41:20.047Z,5.03
2023-01-21T18:43:48.340Z,5.27
2023-01-21T18:46:19.625Z,5.40
2023-01-21T18:48:48.034Z,6.03
2023-01-21T18:51:16.424Z,5.00
2023-01-21T18:53:46.243Z,4.80
2023-01-21T18:56:15.637Z,5.20
2023-01-21T18:58:44.390Z,4.87
2023-01-21T19:01:23.104Z,5.33
2023-01-21T19:03:55.034Z,4.47
2023-01-21T19:06:25.309Z,4.73
2023-01-21T19:08:55.458Z,4.87
2023-01-21T19:11:23.905Z,4.57
2023-01-21T19:13:52.512Z,4.03
2023-01-21T19:16:22.242Z,4.03
2023-01-21T19:18:50.687Z,5.67
2023-01-21T19:21:19.022Z,4.00
2023-01-21T19:23:47.518Z,4.63
2023-01-21T19:26:18.057Z,4.10
2023-01-21T19:28:46.448Z,4.37
2023-01-21T19:31:14.744Z,4.90
2023-01-21T19:33:45.614Z,4.23
2023-01-21T19:36:16.466Z,4.67
2023-01-21T19:38:51.353Z,4.50
2023-01-21T19:41:21.164Z,5.10
2023-01-21T19:43:49.502Z,6.07
2023-01-21T19:46:18.640Z,5.73
2023-01-21T19:48:50.077Z,5.50
2023-01-21T19:51:18.496Z,4.97
2023-01-21T19:53:46.946Z,5.03
2023-01-21T19:56:19.945Z,4.40
2023-01-21T19:58:49.717Z,4.67
2023-01-21T20:01:18.171Z,4.70
2023-01-21T20:03:59.259Z,4.83
2023-01-21T20:06:29.302Z,4.80
2023-01-21T20:09:00.517Z,4.57
2023-01-21T20:11:28.959Z,5.00
2023-01-21T20:13:58.709Z,4.33
2023-01-21T20:16:27.368Z,4.43
2023-01-21T20:18:56.449Z,4.50
2023-01-21T20:21:25.010Z,5.60
2023-01-21T20:23:53.338Z,4.90
2023-01-21T20:26:26.226Z,5.07
2023-01-21T20:28:54.744Z,5.80
2023-01-21T20:31:24.677Z,5.10
2023-01-21T20:33:53.129Z,5.77
2023-01-21T20:36:24.422Z,5.80
2023-01-21T20:38:54.110Z,5.33
2023-01-21T20:41:22.718Z,5.23
2023-01-21T20:43:51.254Z,5.20
2023-01-21T20:46:24.846Z,5.87
2023-01-21T20:48:53.330Z,5.97
2023-01-21T20:51:22.233Z,5.53
2023-01-21T20:53:50.677Z,6.83
2023-01-21T20:56:26.338Z,6.13
2023-01-21T20:58:55.199Z,6.23
2023-01-21T21:01:27.007Z,5.73
2023-01-21T21:03:55.425Z,7.23
2023-01-21T21:06:27.732Z,5.87
2023-01-21T21:08:56.379Z,6.00
2023-01-21T21:11:24.803Z,6.80
2023-01-21T21:13:53.224Z,6.03
2023-01-21T21:16:26.330Z,6.63
2023-01-21T21:18:56.203Z,5.73
2023-01-21T21:21:25.052Z,7.00
2023-01-21T21:23:53.756Z,6.90
2023-01-21T21:26:24.741Z,7.07
2023-01-21T21:28:55.327Z,6.80
2023-01-21T21:31:26.988Z,6.83
2023-01-21T21:33:55.497Z,6.90
2023-01-21T21:36:25.040Z,7.37
2023-01-21T21:38:55.745Z,7.10
2023-01-21T21:41:44.129Z,6.53
2023-01-21T21:44:13.000Z,7.10
2023-01-21T21:47:00.001Z,7.27
2023-01-21T21:49:29.011Z,6.70
2023-01-21T21:51:59.760Z,7.27
2023-01-21T21:54:28.257Z,7.33
2023-01-21T21:56:57.175Z,7.20
2023-01-21T21:59:25.510Z,7.27
2023-01-21T22:01:55.398Z,7.50
2023-01-21T22:04:23.791Z,8.57
2023-01-21T22:06:52.103Z,8.03
2023-01-21T22:09:20.727Z,7.00
2023-01-21T22:11:49.142Z,7.80
2023-01-21T22:14:18.071Z,7.03
2023-01-21T22:16:46.677Z,7.00
2023-01-21T22:19:16.660Z,7.20
2023-01-21T22:21:45.071Z,7.67
2023-01-21T22:24:13.452Z,7.70
2023-01-21T22:26:41.797Z,7.37
2023-01-21T22:29:10.182Z,7.97
2023-01-21T22:31:38.632Z,6.97
2023-01-21T22:34:07.174Z,7.90
2023-01-21T22:36:36.873Z,6.83
2023-01-21T22:39:05.364Z,7.10
2023-01-21T22:41:34.707Z,7.67
2023-01-21T22:44:03.079Z,7.40
2023-01-21T22:46:31.537Z,6.90
2023-01-21T22:48:59.944Z,7.10
2023-01-21T22:51:28.832Z,7.43
2023-01-21T22:54:00.192Z,7.37
2023-01-21T22:56:45.316Z,6.93
2023-01-21T22:59:16.940Z,7.60
2023-01-21T23:01:45.238Z,7.57
2023-01-21T23:04:14.844Z,7.30
2023-01-21T23:06:44.674Z,7.33
2023-01-21T23:09:16.571Z,7.43
2023-01-21T23:11:45.450Z,8.00
2023-01-21T23:14:13.880Z,8.63
2023-01-21T23:16:42.301Z,7.57
2023-01-21T23:19:10.620Z,7.53
2023-01-21T23:21:39.004Z,6.47
2023-01-21T23:24:08.714Z,7.50
2023-01-21T23:26:38.639Z,7.60
2023-01-21T23:29:07.024Z,7.80
2023-01-21T23:31:35.513Z,7.07
2023-01-21T23:34:04.372Z,7.50
2023-01-21T23:36:32.778Z,6.70
2023-01-21T23:39:01.107Z,7.23
2023-01-21T23:41:29.473Z,6.83
2023-01-21T23:44:01.650Z,7.00
2023-01-21T23:46:30.197Z,7.93
2023-01-21T23:48:58.582Z,7.13
2023-01-21T23:51:26.886Z,7.53
2023-01-21T23:53:55.149Z,7.07
2023-01-21T23:56:25.980Z,6.70
2023-01-21T23:58:54.781Z,7.17
